sensor_id;sensor_type;location;lat;lon;timestamp;pressure;altitude;pressure_sealevel;temperature;humidity
73242;BME280;65659;49.234;-2.094;2023-05-25T00:02:14;101383.22;;;18.80;41.51
73242;BME280;65659;49.234;-2.094;2023-05-25T00:04:39;101381.55;;;19.05;41.49
73242;BME280;65659;49.234;-2.094;2023-05-25T00:07:05;101379.47;;;19.03;41.55
73242;BME280;65659;49.234;-2.094;2023-05-25T00:09:31;101381.14;;;18.80;41.61
73242;BME280;65659;49.234;-2.094;2023-05-25T00:11:56;101381.42;;;18.81;41.60
73242;BME280;65659;49.234;-2.094;2023-05-25T00:14:22;101387.85;;;19.06;41.54
73242;BME280;65659;49.234;-2.094;2023-05-25T00:16:48;101395.13;;;18.78;41.56
73242;BME280;65659;49.234;-2.094;2023-05-25T00:19:12;101393.81;;;19.01;41.66
73242;BME280;65659;49.234;-2.094;2023-05-25T00:21:38;101399.99;;;18.99;41.74
73242;BME280;65659;49.234;-2.094;2023-05-25T00:24:03;101400.63;;;18.76;41.77
73242;BME280;65659;49.234;-2.094;2023-05-25T00:26:28;101399.80;;;18.79;41.80
73242;BME280;65659;49.234;-2.094;2023-05-25T00:28:54;101398.90;;;19.05;41.89
73242;BME280;65659;49.234;-2.094;2023-05-25T00:31:19;101396.96;;;19.08;41.94
73242;BME280;65659;49.234;-2.094;2023-05-25T00:33:45;101397.78;;;18.85;41.92
73242;BME280;65659;49.234;-2.094;2023-05-25T00:36:10;101398.88;;;18.85;41.95
73242;BME280;65659;49.234;-2.094;2023-05-25T00:38:35;101399.44;;;18.86;41.94
73242;BME280;65659;49.234;-2.094;2023-05-25T00:41:00;101398.04;;;18.63;41.98
73242;BME280;65659;49.234;-2.094;2023-05-25T00:43:26;101398.32;;;18.90;41.98
73242;BME280;65659;49.234;-2.094;2023-05-25T00:45:52;101396.98;;;18.89;42.04
73242;BME280;65659;49.234;-2.094;2023-05-25T00:48:17;101396.29;;;19.13;42.08
73242;BME280;65659;49.234;-2.094;2023-05-25T00:50:43;101397.02;;;18.90;42.07
73242;BME280;65659;49.234;-2.094;2023-05-25T00:53:10;101402.81;;;18.91;42.08
73242;BME280;65659;49.234;-2.094;2023-05-25T00:55:37;101405.72;;;19.17;42.17
73242;BME280;65659;49.234;-2.094;2023-05-25T00:58:04;101406.40;;;18.97;42.18
73242;BME280;65659;49.234;-2.094;2023-05-25T01:00:24;101403.82;;;18.99;42.17
73242;BME280;65659;49.234;-2.094;2023-05-25T01:02:51;101400.71;;;18.98;42.18
73242;BME280;65659;49.234;-2.094;2023-05-25T01:05:15;101399.69;;;19.26;42.12
73242;BME280;65659;49.234;-2.094;2023-05-25T01:07:42;101398.73;;;19.30;42.05
73242;BME280;65659;49.234;-2.094;2023-05-25T01:10:09;101396.46;;;19.06;42.05
73242;BME280;65659;49.234;-2.094;2023-05-25T01:12:35;101397.33;;;19.06;42.02
73242;BME280;65659;49.234;-2.094;2023-05-25T01:14:59;101396.73;;;18.80;42.00
73242;BME280;65659;49.234;-2.094;2023-05-25T01:17:23;101393.98;;;19.03;41.98
73242;BME280;65659;49.234;-2.094;2023-05-25T01:19:48;101395.16;;;18.76;42.01
73242;BME280;65659;49.234;-2.094;2023-05-25T01:22:22;101397.06;;;18.71;41.82
73242;BME280;65659;49.234;-2.094;2023-05-25T01:24:43;101392.71;;;18.94;41.76
73242;BME280;65659;49.234;-2.094;2023-05-25T01:27:08;101393.75;;;19.18;41.72
73242;BME280;65659;49.234;-2.094;2023-05-25T01:29:31;101392.93;;;19.18;41.72
73242;BME280;65659;49.234;-2.094;2023-05-25T01:31:55;101395.27;;;18.91;41.72
73242;BME280;65659;49.234;-2.094;2023-05-25T01:34:20;101393.21;;;18.89;41.70
73242;BME280;65659;49.234;-2.094;2023-05-25T01:36:46;101392.33;;;18.86;41.64
73242;BME280;65659;49.234;-2.094;2023-05-25T01:39:11;101392.16;;;18.87;41.58
73242;BME280;65659;49.234;-2.094;2023-05-25T01:41:36;101388.12;;;18.82;41.60
73242;BME280;65659;49.234;-2.094;2023-05-25T01:44:01;101383.50;;;18.79;41.61
73242;BME280;65659;49.234;-2.094;2023-05-25T01:46:34;101383.43;;;19.01;41.56
73242;BME280;65659;49.234;-2.094;2023-05-25T01:48:56;101386.16;;;18.99;41.52
73242;BME280;65659;49.234;-2.094;2023-05-25T01:51:24;101385.65;;;18.71;41.50
73242;BME280;65659;49.234;-2.094;2023-05-25T01:53:51;101389.53;;;18.89;41.51
73242;BME280;65659;49.234;-2.094;2023-05-25T01:56:10;101393.89;;;18.83;41.51
73242;BME280;65659;49.234;-2.094;2023-05-25T01:58:39;101395.46;;;18.61;41.46
73242;BME280;65659;49.234;-2.094;2023-05-25T02:01:01;101393.20;;;18.74;41.19
73242;BME280;65659;49.234;-2.094;2023-05-25T02:03:26;101393.78;;;18.91;41.24
73242;BME280;65659;49.234;-2.094;2023-05-25T02:05:54;101394.40;;;18.83;41.37
73242;BME280;65659;49.234;-2.094;2023-05-25T02:08:17;101395.81;;;18.77;41.45
73242;BME280;65659;49.234;-2.094;2023-05-25T02:10:42;101397.76;;;18.61;41.33
73242;BME280;65659;49.234;-2.094;2023-05-25T02:13:07;101395.52;;;18.82;41.31
73242;BME280;65659;49.234;-2.094;2023-05-25T02:15:33;101399.07;;;18.73;41.37
73242;BME280;65659;49.234;-2.094;2023-05-25T02:17:58;101397.88;;;18.64;41.41
73242;BME280;65659;49.234;-2.094;2023-05-25T02:20:24;101399.91;;;18.59;41.46
73242;BME280;65659;49.234;-2.094;2023-05-25T02:22:49;101401.22;;;18.53;41.49
73242;BME280;65659;49.234;-2.094;2023-05-25T02:25:15;101402.82;;;18.48;41.56
73242;BME280;65659;49.234;-2.094;2023-05-25T02:27:40;101405.28;;;18.44;41.59
73242;BME280;65659;49.234;-2.094;2023-05-25T02:30:07;101400.75;;;18.16;41.71
73242;BME280;65659;49.234;-2.094;2023-05-25T02:32:31;101395.97;;;18.36;41.82
73242;BME280;65659;49.234;-2.094;2023-05-25T02:34:57;101396.26;;;18.34;41.85
73242;BME280;65659;49.234;-2.094;2023-05-25T02:37:22;101395.40;;;18.28;41.88
73242;BME280;65659;49.234;-2.094;2023-05-25T02:39:48;101393.83;;;18.26;41.85
73242;BME280;65659;49.234;-2.094;2023-05-25T02:42:13;101393.30;;;18.26;41.85
73242;BME280;65659;49.234;-2.094;2023-05-25T02:44:39;101390.02;;;18.24;41.78
73242;BME280;65659;49.234;-2.094;2023-05-25T02:47:04;101390.89;;;18.23;41.76
73242;BME280;65659;49.234;-2.094;2023-05-25T02:49:29;101387.02;;;18.19;41.74
73242;BME280;65659;49.234;-2.094;2023-05-25T02:51:55;101388.62;;;18.17;41.72
73242;BME280;65659;49.234;-2.094;2023-05-25T02:54:20;101389.20;;;18.16;41.76
73242;BME280;65659;49.234;-2.094;2023-05-25T02:56:47;101390.78;;;18.16;41.79
73242;BME280;65659;49.234;-2.094;2023-05-25T02:59:11;101391.48;;;18.17;41.83
73242;BME280;65659;49.234;-2.094;2023-05-25T03:01:36;101387.17;;;18.15;41.90
73242;BME280;65659;49.234;-2.094;2023-05-25T03:04:02;101386.92;;;18.11;41.94
73242;BME280;65659;49.234;-2.094;2023-05-25T03:06:27;101386.25;;;17.84;42.02
73242;BME280;65659;49.234;-2.094;2023-05-25T03:08:52;101392.16;;;18.09;42.08
73242;BME280;65659;49.234;-2.094;2023-05-25T03:11:18;101394.76;;;18.07;42.20
73242;BME280;65659;49.234;-2.094;2023-05-25T03:13:43;101394.34;;;18.06;42.25
73242;BME280;65659;49.234;-2.094;2023-05-25T03:16:09;101394.95;;;18.30;42.29
73242;BME280;65659;49.234;-2.094;2023-05-25T03:18:35;101396.95;;;18.06;42.36
73242;BME280;65659;49.234;-2.094;2023-05-25T03:21:00;101398.84;;;18.07;42.25
73242;BME280;65659;49.234;-2.094;2023-05-25T03:23:25;101397.33;;;18.05;42.21
73242;BME280;65659;49.234;-2.094;2023-05-25T03:25:51;101396.46;;;18.03;42.25
73242;BME280;65659;49.234;-2.094;2023-05-25T03:28:17;101400.57;;;18.01;42.33
73242;BME280;65659;49.234;-2.094;2023-05-25T03:30:42;101407.25;;;18.21;42.42
73242;BME280;65659;49.234;-2.094;2023-05-25T03:33:08;101406.72;;;17.95;42.37
73242;BME280;65659;49.234;-2.094;2023-05-25T03:35:34;101407.08;;;17.91;42.33
73242;BME280;65659;49.234;-2.094;2023-05-25T03:37:59;101406.20;;;17.86;42.37
73242;BME280;65659;49.234;-2.094;2023-05-25T03:40:24;101406.57;;;17.77;42.38
73242;BME280;65659;49.234;-2.094;2023-05-25T03:42:50;101406.57;;;17.73;42.36
73242;BME280;65659;49.234;-2.094;2023-05-25T03:45:15;101409.43;;;17.66;42.38
73242;BME280;65659;49.234;-2.094;2023-05-25T03:47:41;101413.28;;;17.58;42.47
73242;BME280;65659;49.234;-2.094;2023-05-25T03:50:07;101418.34;;;18.01;42.58
73242;BME280;65659;49.234;-2.094;2023-05-25T03:52:32;101423.14;;;17.72;42.68
73242;BME280;65659;49.234;-2.094;2023-05-25T03:54:58;101427.59;;;17.94;42.94
73242;BME280;65659;49.234;-2.094;2023-05-25T03:57:23;101429.29;;;17.90;42.93
73242;BME280;65659;49.234;-2.094;2023-05-25T03:59:48;101432.71;;;17.39;43.16
73242;BME280;65659;49.234;-2.094;2023-05-25T04:02:14;101432.47;;;17.86;43.38
73242;BME280;65659;49.234;-2.094;2023-05-25T04:04:39;101431.29;;;17.61;43.68
73242;BME280;65659;49.234;-2.094;2023-05-25T04:07:05;101430.04;;;17.60;44.10
73242;BME280;65659;49.234;-2.094;2023-05-25T04:09:31;101427.33;;;17.81;44.39
73242;BME280;65659;49.234;-2.094;2023-05-25T04:11:56;101427.33;;;17.80;44.55
73242;BME280;65659;49.234;-2.094;2023-05-25T04:14:22;101427.42;;;17.78;44.92
73242;BME280;65659;49.234;-2.094;2023-05-25T04:16:52;101428.19;;;17.82;44.94
73242;BME280;65659;49.234;-2.094;2023-05-25T04:19:13;101430.70;;;17.58;45.22
73242;BME280;65659;49.234;-2.094;2023-05-25T04:21:38;101428.58;;;17.58;45.73
73242;BME280;65659;49.234;-2.094;2023-05-25T04:24:04;101431.42;;;17.57;45.65
73242;BME280;65659;49.234;-2.094;2023-05-25T04:26:29;101435.03;;;17.79;45.68
73242;BME280;65659;49.234;-2.094;2023-05-25T04:28:57;101441.36;;;17.33;45.69
73242;BME280;65659;49.234;-2.094;2023-05-25T04:31:20;101446.16;;;17.85;45.78
73242;BME280;65659;49.234;-2.094;2023-05-25T04:33:51;101449.09;;;17.83;45.76
73242;BME280;65659;49.234;-2.094;2023-05-25T04:36:12;101447.79;;;17.83;45.70
73242;BME280;65659;49.234;-2.094;2023-05-25T04:38:37;101446.96;;;17.34;45.55
73242;BME280;65659;49.234;-2.094;2023-05-25T04:41:02;101446.21;;;17.85;45.20
73242;BME280;65659;49.234;-2.094;2023-05-25T04:43:28;101446.43;;;17.64;45.02
73242;BME280;65659;49.234;-2.094;2023-05-25T04:45:54;101448.17;;;17.66;44.82
73242;BME280;65659;49.234;-2.094;2023-05-25T04:48:19;101449.08;;;17.94;44.79
73242;BME280;65659;49.234;-2.094;2023-05-25T04:50:47;101449.15;;;17.78;44.84
73242;BME280;65659;49.234;-2.094;2023-05-25T04:53:10;101449.64;;;17.60;45.08
73242;BME280;65659;49.234;-2.094;2023-05-25T04:55:36;101451.35;;;17.88;45.13
73242;BME280;65659;49.234;-2.094;2023-05-25T04:58:01;101450.31;;;17.91;44.92
73242;BME280;65659;49.234;-2.094;2023-05-25T05:00:26;101455.84;;;17.72;44.63
73242;BME280;65659;49.234;-2.094;2023-05-25T05:02:52;101456.30;;;17.88;44.30
73242;BME280;65659;49.234;-2.094;2023-05-25T05:05:18;101456.44;;;17.96;44.23
73242;BME280;65659;49.234;-2.094;2023-05-25T05:07:43;101460.72;;;18.05;44.38
73242;BME280;65659;49.234;-2.094;2023-05-25T05:10:10;101463.85;;;18.10;44.56
73242;BME280;65659;49.234;-2.094;2023-05-25T05:12:35;101467.70;;;18.39;44.75
73242;BME280;65659;49.234;-2.094;2023-05-25T05:15:01;101465.17;;;18.21;44.90
73242;BME280;65659;49.234;-2.094;2023-05-25T05:17:26;101466.79;;;18.22;44.72
73242;BME280;65659;49.234;-2.094;2023-05-25T05:19:52;101465.30;;;18.30;44.35
73242;BME280;65659;49.234;-2.094;2023-05-25T05:22:18;101468.25;;;18.35;44.18
73242;BME280;65659;49.234;-2.094;2023-05-25T05:24:43;101472.95;;;18.43;44.06
73242;BME280;65659;49.234;-2.094;2023-05-25T05:27:09;101475.71;;;18.47;43.71
73242;BME280;65659;49.234;-2.094;2023-05-25T05:29:34;101476.06;;;18.63;43.66
73242;BME280;65659;49.234;-2.094;2023-05-25T05:32:00;101478.21;;;18.42;43.70
73242;BME280;65659;49.234;-2.094;2023-05-25T05:34:26;101478.80;;;18.68;43.81
73242;BME280;65659;49.234;-2.094;2023-05-25T05:36:51;101478.00;;;18.68;43.63
73242;BME280;65659;49.234;-2.094;2023-05-25T05:39:16;101478.87;;;18.62;43.68
73242;BME280;65659;49.234;-2.094;2023-05-25T05:41:42;101480.38;;;18.73;43.46
73242;BME280;65659;49.234;-2.094;2023-05-25T05:44:08;101481.11;;;18.77;43.46
73242;BME280;65659;49.234;-2.094;2023-05-25T05:46:33;101481.85;;;18.58;43.40
73242;BME280;65659;49.234;-2.094;2023-05-25T05:48:59;101481.55;;;18.83;43.22
73242;BME280;65659;49.234;-2.094;2023-05-25T05:51:24;101479.70;;;18.83;43.16
73242;BME280;65659;49.234;-2.094;2023-05-25T05:53:49;101481.29;;;18.64;42.99
73242;BME280;65659;49.234;-2.094;2023-05-25T05:56:16;101479.43;;;18.38;42.73
73242;BME280;65659;49.234;-2.094;2023-05-25T05:58:40;101479.16;;;18.68;42.43
73242;BME280;65659;49.234;-2.094;2023-05-25T06:01:06;101478.42;;;18.90;42.37
73242;BME280;65659;49.234;-2.094;2023-05-25T06:03:31;101481.37;;;18.74;42.08
73242;BME280;65659;49.234;-2.094;2023-05-25T06:05:56;101485.28;;;18.96;42.09
73242;BME280;65659;49.234;-2.094;2023-05-25T06:08:22;101489.08;;;19.04;42.00
73242;BME280;65659;49.234;-2.094;2023-05-25T06:10:49;101486.65;;;18.81;41.97
73242;BME280;65659;49.234;-2.094;2023-05-25T06:13:13;101491.03;;;18.68;41.91
73242;BME280;65659;49.234;-2.094;2023-05-25T06:15:39;101495.66;;;18.97;41.76
73242;BME280;65659;49.234;-2.094;2023-05-25T06:18:09;101501.38;;;18.85;41.44
73242;BME280;65659;49.234;-2.094;2023-05-25T06:20:29;101503.67;;;19.11;41.18
73242;BME280;65659;49.234;-2.094;2023-05-25T06:22:55;101504.38;;;18.98;40.91
73242;BME280;65659;49.234;-2.094;2023-05-25T06:25:20;101503.28;;;19.06;40.78
73242;BME280;65659;49.234;-2.094;2023-05-25T06:27:46;101502.52;;;19.02;40.70
73242;BME280;65659;49.234;-2.094;2023-05-25T06:30:11;101503.84;;;18.95;40.21
73242;BME280;65659;49.234;-2.094;2023-05-25T06:32:37;101501.82;;;19.22;40.05
73242;BME280;65659;49.234;-2.094;2023-05-25T06:35:02;101506.49;;;18.86;39.87
73242;BME280;65659;49.234;-2.094;2023-05-25T06:37:28;101507.01;;;19.26;39.63
73242;BME280;65659;49.234;-2.094;2023-05-25T06:39:53;101508.07;;;19.13;39.66
73242;BME280;65659;49.234;-2.094;2023-05-25T06:42:19;101508.27;;;19.27;39.01
73242;BME280;65659;49.234;-2.094;2023-05-25T06:44:45;101508.04;;;19.02;38.83
73242;BME280;65659;49.234;-2.094;2023-05-25T06:47:09;101504.89;;;19.19;38.61
73242;BME280;65659;49.234;-2.094;2023-05-25T06:49:35;101503.79;;;19.58;38.13
73242;BME280;65659;49.234;-2.094;2023-05-25T06:52:01;101506.67;;;19.43;37.77
73242;BME280;65659;49.234;-2.094;2023-05-25T06:54:26;101511.01;;;19.63;37.36
73242;BME280;65659;49.234;-2.094;2023-05-25T06:56:52;101516.77;;;19.36;36.97
73242;BME280;65659;49.234;-2.094;2023-05-25T06:59:17;101519.50;;;19.97;36.62
73242;BME280;65659;49.234;-2.094;2023-05-25T07:01:45;101523.91;;;19.62;36.51
73242;BME280;65659;49.234;-2.094;2023-05-25T07:04:09;101528.55;;;19.63;36.14
73242;BME280;65659;49.234;-2.094;2023-05-25T07:06:34;101530.29;;;20.46;35.97
73242;BME280;65659;49.234;-2.094;2023-05-25T07:09:00;101531.91;;;19.99;35.79
73242;BME280;65659;49.234;-2.094;2023-05-25T07:11:25;101533.16;;;19.83;35.66
73242;BME280;65659;49.234;-2.094;2023-05-25T07:13:50;101531.80;;;19.95;35.65
73242;BME280;65659;49.234;-2.094;2023-05-25T07:16:16;101540.35;;;20.12;35.41
73242;BME280;65659;49.234;-2.094;2023-05-25T07:18:42;101537.63;;;20.30;34.89
73242;BME280;65659;49.234;-2.094;2023-05-25T07:21:08;101536.60;;;20.21;35.01
73242;BME280;65659;49.234;-2.094;2023-05-25T07:23:34;101538.66;;;20.28;35.01
73242;BME280;65659;49.234;-2.094;2023-05-25T07:25:59;101538.03;;;20.01;34.66
73242;BME280;65659;49.234;-2.094;2023-05-25T07:28:25;101541.84;;;20.18;34.42
73242;BME280;65659;49.234;-2.094;2023-05-25T07:30:51;101543.04;;;20.06;34.15
73242;BME280;65659;49.234;-2.094;2023-05-25T07:33:17;101545.37;;;20.67;33.82
73242;BME280;65659;49.234;-2.094;2023-05-25T07:35:42;101546.55;;;20.64;33.56
73242;BME280;65659;49.234;-2.094;2023-05-25T07:38:09;101549.41;;;20.77;33.02
73242;BME280;65659;49.234;-2.094;2023-05-25T07:40:34;101547.19;;;20.80;33.23
73242;BME280;65659;49.234;-2.094;2023-05-25T07:42:58;101545.23;;;20.64;33.17
73242;BME280;65659;49.234;-2.094;2023-05-25T07:45:24;101542.23;;;20.50;33.29
73242;BME280;65659;49.234;-2.094;2023-05-25T07:47:49;101545.38;;;20.77;32.98
73242;BME280;65659;49.234;-2.094;2023-05-25T07:50:14;101542.32;;;20.83;32.94
73242;BME280;65659;49.234;-2.094;2023-05-25T07:52:40;101545.34;;;21.03;32.64
73242;BME280;65659;49.234;-2.094;2023-05-25T07:55:07;101548.22;;;21.12;32.47
73242;BME280;65659;49.234;-2.094;2023-05-25T07:57:34;101548.58;;;20.67;32.60
73242;BME280;65659;49.234;-2.094;2023-05-25T07:59:57;101550.96;;;21.23;32.51
73242;BME280;65659;49.234;-2.094;2023-05-25T08:02:23;101552.45;;;21.57;32.39
73242;BME280;65659;49.234;-2.094;2023-05-25T08:04:49;101550.83;;;21.45;32.59
73242;BME280;65659;49.234;-2.094;2023-05-25T08:07:14;101549.95;;;20.83;32.77
73242;BME280;65659;49.234;-2.094;2023-05-25T08:09:40;101549.23;;;21.39;32.78
73242;BME280;65659;49.234;-2.094;2023-05-25T08:12:06;101550.41;;;21.38;32.94
73242;BME280;65659;49.234;-2.094;2023-05-25T08:14:31;101554.98;;;21.44;32.98
73242;BME280;65659;49.234;-2.094;2023-05-25T08:16:57;101557.55;;;21.18;33.02
73242;BME280;65659;49.234;-2.094;2023-05-25T08:19:22;101556.94;;;21.36;33.10
73242;BME280;65659;49.234;-2.094;2023-05-25T08:21:48;101556.38;;;21.48;33.09
73242;BME280;65659;49.234;-2.094;2023-05-25T08:24:14;101558.97;;;21.68;33.24
73242;BME280;65659;49.234;-2.094;2023-05-25T08:26:40;101561.35;;;21.86;33.12
73242;BME280;65659;49.234;-2.094;2023-05-25T08:29:06;101558.89;;;21.87;32.72
73242;BME280;65659;49.234;-2.094;2023-05-25T08:31:31;101558.04;;;21.96;32.64
73242;BME280;65659;49.234;-2.094;2023-05-25T08:34:01;101558.92;;;21.82;32.71
73242;BME280;65659;49.234;-2.094;2023-05-25T08:36:23;101559.61;;;22.15;32.70
73242;BME280;65659;49.234;-2.094;2023-05-25T08:38:48;101558.97;;;22.21;32.38
73242;BME280;65659;49.234;-2.094;2023-05-25T08:41:13;101557.78;;;22.05;32.29
73242;BME280;65659;49.234;-2.094;2023-05-25T08:43:41;101563.81;;;22.09;32.17
73242;BME280;65659;49.234;-2.094;2023-05-25T08:46:09;101558.75;;;21.95;31.90
73242;BME280;65659;49.234;-2.094;2023-05-25T08:50:58;101563.64;;;22.22;31.68
73242;BME280;65659;49.234;-2.094;2023-05-25T08:53:27;101561.88;;;23.03;32.01
73242;BME280;65659;49.234;-2.094;2023-05-25T08:55:49;101560.20;;;22.35;32.09
73242;BME280;65659;49.234;-2.094;2023-05-25T08:58:18;101562.14;;;22.47;32.02
73242;BME280;65659;49.234;-2.094;2023-05-25T09:00:50;101561.19;;;22.66;31.91
73242;BME280;65659;49.234;-2.094;2023-05-25T09:03:10;101561.45;;;22.64;31.93
73242;BME280;65659;49.234;-2.094;2023-05-25T09:05:34;101561.55;;;23.02;31.85
73242;BME280;65659;49.234;-2.094;2023-05-25T09:07:59;101563.55;;;22.87;31.77
73242;BME280;65659;49.234;-2.094;2023-05-25T09:10:25;101561.25;;;22.97;31.62
73242;BME280;65659;49.234;-2.094;2023-05-25T09:12:56;101558.47;;;23.50;31.62
73242;BME280;65659;49.234;-2.094;2023-05-25T09:15:15;101555.72;;;22.83;31.62
73242;BME280;65659;49.234;-2.094;2023-05-25T09:17:42;101554.79;;;22.89;31.61
73242;BME280;65659;49.234;-2.094;2023-05-25T09:20:04;101558.50;;;23.11;31.53
73242;BME280;65659;49.234;-2.094;2023-05-25T09:22:30;101556.71;;;23.05;31.49
73242;BME280;65659;49.234;-2.094;2023-05-25T09:24:55;101559.06;;;22.99;31.40
73242;BME280;65659;49.234;-2.094;2023-05-25T09:27:23;101562.98;;;22.90;31.27
73242;BME280;65659;49.234;-2.094;2023-05-25T09:29:49;101560.81;;;23.00;31.15
73242;BME280;65659;49.234;-2.094;2023-05-25T09:32:12;101564.72;;;23.36;30.96
73242;BME280;65659;49.234;-2.094;2023-05-25T09:34:37;101567.65;;;23.25;30.64
73242;BME280;65659;49.234;-2.094;2023-05-25T09:37:07;101564.44;;;23.23;30.35
73242;BME280;65659;49.234;-2.094;2023-05-25T09:39:29;101564.31;;;23.54;29.93
73242;BME280;65659;49.234;-2.094;2023-05-25T09:42:04;101567.08;;;23.82;29.81
73242;BME280;65659;49.234;-2.094;2023-05-25T09:44:20;101569.49;;;23.53;29.91
73242;BME280;65659;49.234;-2.094;2023-05-25T09:46:48;101570.25;;;23.35;29.73
73242;BME280;65659;49.234;-2.094;2023-05-25T09:49:11;101569.18;;;23.21;29.65
73242;BME280;65659;49.234;-2.094;2023-05-25T09:51:37;101571.57;;;23.70;29.39
73242;BME280;65659;49.234;-2.094;2023-05-25T09:54:08;101578.16;;;23.18;29.59
73242;BME280;65659;49.234;-2.094;2023-05-25T09:56:31;101573.01;;;23.60;29.69
73242;BME280;65659;49.234;-2.094;2023-05-25T09:58:53;101571.92;;;23.24;29.85
73242;BME280;65659;49.234;-2.094;2023-05-25T10:01:19;101571.50;;;23.53;29.92
73242;BME280;65659;49.234;-2.094;2023-05-25T10:03:46;101575.22;;;24.76;30.34
73242;BME280;65659;49.234;-2.094;2023-05-25T10:06:10;101576.75;;;23.40;30.63
73242;BME280;65659;49.234;-2.094;2023-05-25T10:08:37;101575.72;;;23.27;30.00
73242;BME280;65659;49.234;-2.094;2023-05-25T10:11:01;101575.55;;;23.43;29.73
73242;BME280;65659;49.234;-2.094;2023-05-25T10:13:29;101576.93;;;23.49;29.12
73242;BME280;65659;49.234;-2.094;2023-05-25T10:15:53;101577.42;;;23.83;28.86
73242;BME280;65659;49.234;-2.094;2023-05-25T10:18:20;101573.55;;;23.94;28.66
73242;BME280;65659;49.234;-2.094;2023-05-25T10:20:47;101574.71;;;23.71;28.82
73242;BME280;65659;49.234;-2.094;2023-05-25T10:23:13;101573.48;;;23.74;29.06
73242;BME280;65659;49.234;-2.094;2023-05-25T10:25:39;101576.65;;;24.14;28.96
73242;BME280;65659;49.234;-2.094;2023-05-25T10:28:01;101576.23;;;24.03;28.70
73242;BME280;65659;49.234;-2.094;2023-05-25T10:30:26;101584.09;;;24.42;28.39
73242;BME280;65659;49.234;-2.094;2023-05-25T10:32:51;101579.59;;;24.32;28.40
73242;BME280;65659;49.234;-2.094;2023-05-25T10:35:17;101581.04;;;24.25;28.40
73242;BME280;65659;49.234;-2.094;2023-05-25T10:37:42;101584.79;;;24.41;28.41
73242;BME280;65659;49.234;-2.094;2023-05-25T10:40:08;101582.19;;;24.50;28.42
73242;BME280;65659;49.234;-2.094;2023-05-25T10:42:33;101586.31;;;24.53;28.37
73242;BME280;65659;49.234;-2.094;2023-05-25T10:45:01;101582.21;;;24.52;27.88
73242;BME280;65659;49.234;-2.094;2023-05-25T10:47:24;101578.05;;;24.46;27.61
73242;BME280;65659;49.234;-2.094;2023-05-25T10:49:55;101577.84;;;24.59;27.37
73242;BME280;65659;49.234;-2.094;2023-05-25T10:52:18;101580.01;;;24.63;27.51
73242;BME280;65659;49.234;-2.094;2023-05-25T10:54:40;101580.48;;;24.65;27.59
73242;BME280;65659;49.234;-2.094;2023-05-25T10:57:09;101578.33;;;24.80;27.58
73242;BME280;65659;49.234;-2.094;2023-05-25T10:59:31;101580.77;;;24.70;27.50
73242;BME280;65659;49.234;-2.094;2023-05-25T11:01:55;101573.44;;;25.58;28.08
73242;BME280;65659;49.234;-2.094;2023-05-25T11:04:23;101569.25;;;25.27;29.10
73242;BME280;65659;49.234;-2.094;2023-05-25T11:07:03;101572.64;;;23.78;28.91
73242;BME280;65659;49.234;-2.094;2023-05-25T11:09:24;101565.47;;;23.58;28.15
73242;BME280;65659;49.234;-2.094;2023-05-25T11:14:04;101573.00;;;24.37;27.47
73242;BME280;65659;49.234;-2.094;2023-05-25T11:16:33;101577.22;;;25.01;27.26
73242;BME280;65659;49.234;-2.094;2023-05-25T11:18:56;101572.95;;;25.39;27.76
73242;BME280;65659;49.234;-2.094;2023-05-25T11:21:39;101567.71;;;25.77;28.86
73242;BME280;65659;49.234;-2.094;2023-05-25T11:26:19;101568.74;;;23.23;29.36
73242;BME280;65659;49.234;-2.094;2023-05-25T11:28:44;101567.70;;;24.21;28.45
73242;BME280;65659;49.234;-2.094;2023-05-25T11:31:05;101571.53;;;24.56;27.65
73242;BME280;65659;49.234;-2.094;2023-05-25T11:33:30;101568.69;;;24.71;27.43
73242;BME280;65659;49.234;-2.094;2023-05-25T11:35:55;101565.43;;;24.90;26.97
73242;BME280;65659;49.234;-2.094;2023-05-25T11:38:24;101568.68;;;25.96;26.96
73242;BME280;65659;49.234;-2.094;2023-05-25T11:40:48;101565.83;;;24.83;27.12
73242;BME280;65659;49.234;-2.094;2023-05-25T11:43:14;101559.48;;;25.10;26.43
73242;BME280;65659;49.234;-2.094;2023-05-25T11:48:12;101558.47;;;25.42;25.99
73242;BME280;65659;49.234;-2.094;2023-05-25T11:50:34;101554.29;;;25.11;26.35
73242;BME280;65659;49.234;-2.094;2023-05-25T11:52:55;101546.42;;;25.26;26.00
73242;BME280;65659;49.234;-2.094;2023-05-25T11:55:25;101539.76;;;25.29;26.13
73242;BME280;65659;49.234;-2.094;2023-05-25T11:57:55;101545.10;;;25.70;26.24
73242;BME280;65659;49.234;-2.094;2023-05-25T12:00:27;101552.05;;;25.61;25.87
73242;BME280;65659;49.234;-2.094;2023-05-25T12:02:38;101548.82;;;25.70;25.80
73242;BME280;65659;49.234;-2.094;2023-05-25T12:05:03;101550.52;;;26.07;25.85
73242;BME280;65659;49.234;-2.094;2023-05-25T12:07:29;101552.28;;;25.78;25.89
73242;BME280;65659;49.234;-2.094;2023-05-25T12:10:04;101548.11;;;26.14;25.61
73242;BME280;65659;49.234;-2.094;2023-05-25T12:12:20;101553.41;;;26.13;25.34
73242;BME280;65659;49.234;-2.094;2023-05-25T12:14:49;101554.86;;;26.39;25.26
73242;BME280;65659;49.234;-2.094;2023-05-25T12:17:09;101550.58;;;26.43;24.94
73242;BME280;65659;49.234;-2.094;2023-05-25T12:19:35;101556.99;;;26.67;24.45
73242;BME280;65659;49.234;-2.094;2023-05-25T12:22:02;101551.78;;;26.62;24.40
73242;BME280;65659;49.234;-2.094;2023-05-25T12:24:27;101551.56;;;26.62;24.15
73242;BME280;65659;49.234;-2.094;2023-05-25T12:26:53;101555.85;;;27.08;24.01
73242;BME280;65659;49.234;-2.094;2023-05-25T12:29:17;101548.51;;;28.11;23.87
73242;BME280;65659;49.234;-2.094;2023-05-25T12:31:42;101551.82;;;27.87;25.01
73242;BME280;65659;49.234;-2.094;2023-05-25T12:34:12;101549.22;;;27.23;26.16
73242;BME280;65659;49.234;-2.094;2023-05-25T12:36:38;101553.59;;;25.61;25.62
73242;BME280;65659;49.234;-2.094;2023-05-25T12:39:01;101552.23;;;26.81;24.62
73242;BME280;65659;49.234;-2.094;2023-05-25T12:41:26;101549.23;;;27.02;23.56